Warning: Javascript must be enabled to use all the features on this page!


Page Loading - Please Wait...

Click to hideNews Bulletins

Peak Streamflow for the Nation

USGS 11317000 MF MOKELUMNE R A WEST POINT CA

Calaveras County, California
Hydrologic Unit Code 18040012
Latitude  38°23'23", Longitude 120°31'32" NAD27
Drainage area 68.4  square miles
Gage datum 2,450.00 feet above NGVD29
Output formats
Table
Graph
Tab-separated file
peakfq (watstore) format
Reselect output format
Water
Year
Date Gage
Height
(feet)
Stream-
flow
(cfs)
1912 1912-03-06 4.55 168
1913 1913-04-08 4.20 111
1914 1914-01-23 10.00 2,550
1915 1915-05-13 6.60 701
1916 1916-03-20 8.00 1,300
1917 1917-02-21 7.80 1,240
1918 1918-03-11 7.56 1,150
1919 1919-02-10 5.70 454
1920 1920-04-15 6.45 675
1921 1921-01-18 6.30 640
1922 1922-05-20 5.80 484
1923 1923-04-06 5.95 544
1924 1924-02-08 4.30 127
1925 1925-02-06 9.00 1,930
1926 1926-04-08 5.80 484
1927 1927-02-18 4.706 930
1928 1928-03-25 6.826 2,200
1929 1929-02-04 3.02 346
1930 1930-03-04 3.40 460
1931 1930-11-16 1.87 106
1932 1932-02-06 4.65 910
1933 1933-03-17 2.22 161
1934 1934-01-01 3.05 354
1935 1935-04-08 5.17 960
1936 1936-02-22 7.22 2,520
1937 1937-02-14 5.41 1,080
1938 1937-12-11 5.97 1,460
1939 1939-03-27 2.22 145
1940 1940-03-31 6.40 1,900
1941 1941-03-01 3.94 568
1942 1942-01-27 5.94 1,560
1943 1943-01-21 5.78 1,470
1944 1944-03-04 3.78 520
1945 1945-02-02 5.90 1,620
1946 1945-12-22 4.80 975
1947 1946-11-23 3.17 370
1948 1948-04-05 2.98 317
1949 1949-03-03 3.29 403
1950 1950-02-04 4.32 688
1951 1950-11-18 7.70 2,820
1952 1951-12-01 4.90 960
1953 1953-04-27 3.70 470
1954 1954-03-10 3.63 464
1955 1955-04-22 3.08 305
1956 1955-12-23 8.98 4,320
1957 1957-02-24 4.62 859
1958 1958-04-02 6.13 1,720
1959 1959-02-16 4.32 739
1960 1960-02-08 5.40 1,260
1961 1960-12-01 2.19 111
1962 1962-02-15 5.11 1,100
1963 1963-01-31 8.22 3,400
1964 1964-01-21 2.54 201
1965 1964-12-23 7.91 3,160
1966 1965-11-18 2.63 238
1967 1967-03-16 5.37 1,240
1968 1968-02-20 3.28 379
1969 1969-01-21 7.49 3,090
1970 1970-01-21 6.38 1,920
1971 1971-03-26 5.10 1,090
1972 1971-12-25 3.79 567
1973 1973-01-16 5.03 1,060
1974 1974-03-02 5.90 1,570
1975 1975-03-25 5.03 1,060
1976 1976-03-01 1.75 78.0
1977 1976-10-12 1.36 38.0
1978 1978-01-14 4.48 801
1979 1979-01-11 5.21 1,150
1980 1980-01-13 8.32 4,080
1981 1981-03-26 3.27 407
1982 1982-02-16 8.67 4,510
1983 1983-03-13 6.87 2,350
1984 1983-11-24 6.09 1,800
1985 1985-02-08 3.16 385
1986 1986-02-19 9.19 4,920
1987 1987-02-13 2.91 187
1988 1988-03-01 2.29 79.0
1989 1989-03-25 3.53 477
1990 1989-11-26 2.41 96.0
1991 1991-03-04 2.83 170
1992 1992-02-15 2.66 138
1993 1993-01-22 5.15 1,070
1994 1994-04-19 2.20 59.0
1995 1995-03-10 7.91 3,130
1996 1996-02-20 5.00 986
1997 1997-01-02 9.28 5,040
1998 1998-02-03 6.22 1,760
1999 1999-02-09 6.63 2,060
2000 2000-01-24 6.55 1,850
2001 2001-04-20 2.822 195
2002 2002-03-07 3.55 434
2003 2003-04-13 3.86 535
2004 2004-02-25 3.64 435
2005 2005-03-22 4.64 813
2006 2005-12-31 7.59 2,730
2007 2007-02-11 4.38 320
2008 2008-01-28 3.96 278
2009 2009-03-02 5.54 1,140
2010 2010-02-27 4.18 429
2011 2011-03-16 6.35 1,710
2012 2012-03-17 4.64 517
2013 2012-12-02 5.66 1,180
2014 2014-02-09 3.80 299
2015 2015-02-08 4.99 1,040
2016 2016-03-06 5.26 1,270
2017 2017-02-10 7.53 3,140
2018 2018-03-22 6.77 2,410
2019 2019-02-14 8.265 3,9602
2020 2020-04-05 3.80 517
?
  Peak Gage-Height Qualification Codes.
?
  Peak Streamflow Qualification Codes.